Fsl New York — 9VBQ8 — position and weather

sailwx.info

Track history (hours):
 
Tides and Currents Weather Stations Pressure Air Temp Water Temp Dewpoint Dewpoint Depression Visibility Wind Speed Wind Dir Waves Ship Positions

Fsl New York

Last reported at 2017-Dec-18 15:42 UTC. Time now 2018-Apr-20 11:03 UTC.
Position N 36°48' E 023°47'.
Warning: this ship's position is months out of date.

Length 145 m; draft 5.8 m.

Type: Tanker. MMSI: 565174000.

Date/timePositionNaut miles runAvg speedWind from/ knotsBaromVisibWave heightAir tempDewpointWater temp
2017-Dec-18 15:42N 36°48' E 023°47'312.6
2017-Dec-18 15:28N 36°51' E 023°47'812.4
2017-Dec-18 14:51N 36°58' E 023°49'412.8
2017-Dec-18 14:31N 37°02' E 023°51'1412.7
2017-Dec-18 13:25N 37°16' E 023°56'812.9
2017-Dec-18 12:49N 37°23' E 023°60'813.0
2017-Dec-18 12:10N 37°30' E 024°05'213.2
2017-Dec-18 12:00N 37°32' E 024°06'713.3
2017-Dec-18 11:30N 37°38' E 024°10'813.4
2017-Dec-18 10:55N 37°45' E 024°15'1212.9
2017-Dec-18 10:00N 37°51' E 024°28'276 9.8
2017-Dec-17 05:50N 40°57' E 028°53'1 3.5
2017-Dec-17 05:26N 40°55' E 028°52'4 8.5
2017-Dec-17 05:00N 40°52' E 028°54'612.4
2017-Dec-17 04:30N 40°48' E 029°00'612.2
2017-Dec-17 04:00N 40°46' E 029°08'612.5
2017-Dec-17 03:30N 40°45' E 029°16'510.8
2017-Dec-17 03:00N 40°45' E 029°23'611.5
2017-Dec-17 02:27N 40°45' E 029°31'  
2017-Dec-14 17:34N 40°45' E 029°34'111.7
2017-Dec-14 17:29N 40°45' E 029°33'5 9.8
2017-Dec-14 16:57N 40°44' E 029°26'4 9.8
2017-Dec-14 16:30N 40°43' E 029°20'611.4
2017-Dec-14 16:00N 40°43' E 029°13'23310.4
2017-Dec-13 17:34N 38°00' E 025°37'113.9
2017-Dec-13 17:30N 37°59' E 025°38'714.1
2017-Dec-13 17:00N 37°53' E 025°41'2213.3
2017-Dec-13 15:20N 37°32' E 025°51'413.1
2017-Dec-13 15:00N 37°28' E 025°53'612.4
2017-Dec-13 14:30N 37°24' E 025°59'612.8
2017-Dec-13 14:00N 37°20' E 026°05'612.6
2017-Dec-13 13:30N 37°17' E 026°12'612.5
2017-Dec-13 13:00N 37°13' E 026°18'612.9
2017-Dec-13 12:30N 37°09' E 026°25'612.9
2017-Dec-13 12:00N 37°06' E 026°31'712.0
2017-Dec-13 11:27N 37°00' E 026°36'812.9
2017-Dec-13 10:50N 36°53' E 026°40'512.8
2017-Dec-13 10:26N 36°48' E 026°41'612.8
2017-Dec-13 09:58N 36°42' E 026°44'913.4
2017-Dec-13 09:18N 36°34' E 026°48'513.4
2017-Dec-13 08:57N 36°29' E 026°50'17511.3
2017-Dec-12 17:24N 35°46' E 030°20'  
Track history (hours):
 
Tides and Currents Weather Stations Pressure Air Temp Water Temp Dewpoint Dewpoint Depression Visibility Wind Speed Wind Dir Waves Ship Positions

Fsl New York

Last reported at 2017-Dec-18 15:42 UTC. Time now 2018-Apr-20 11:03 UTC.
Position N 36°48' E 023°47'.
Warning: this ship's position is months out of date.

Length 145 m; draft 5.8 m.

Type: Tanker. MMSI: 565174000.

Date/timePositionNaut miles runAvg speedWind from/ knotsBaromVisibWave heightAir tempDewpointWater temp
2017-Dec-18 15:42N 36°48' E 023°47'312.6
2017-Dec-18 15:28N 36°51' E 023°47'812.4
2017-Dec-18 14:51N 36°58' E 023°49'412.8
2017-Dec-18 14:31N 37°02' E 023°51'1412.7
2017-Dec-18 13:25N 37°16' E 023°56'812.9
2017-Dec-18 12:49N 37°23' E 023°60'813.0
2017-Dec-18 12:10N 37°30' E 024°05'213.2
2017-Dec-18 12:00N 37°32' E 024°06'713.3
2017-Dec-18 11:30N 37°38' E 024°10'813.4
2017-Dec-18 10:55N 37°45' E 024°15'1212.9
2017-Dec-18 10:00N 37°51' E 024°28'276 9.8
2017-Dec-17 05:50N 40°57' E 028°53'1 3.5
2017-Dec-17 05:26N 40°55' E 028°52'4 8.5
2017-Dec-17 05:00N 40°52' E 028°54'612.4
2017-Dec-17 04:30N 40°48' E 029°00'612.2
2017-Dec-17 04:00N 40°46' E 029°08'612.5
2017-Dec-17 03:30N 40°45' E 029°16'510.8
2017-Dec-17 03:00N 40°45' E 029°23'611.5
2017-Dec-17 02:27N 40°45' E 029°31'  
2017-Dec-14 17:34N 40°45' E 029°34'111.7
2017-Dec-14 17:29N 40°45' E 029°33'5 9.8
2017-Dec-14 16:57N 40°44' E 029°26'4 9.8
2017-Dec-14 16:30N 40°43' E 029°20'611.4
2017-Dec-14 16:00N 40°43' E 029°13'23310.4
2017-Dec-13 17:34N 38°00' E 025°37'113.9
2017-Dec-13 17:30N 37°59' E 025°38'714.1
2017-Dec-13 17:00N 37°53' E 025°41'2213.3
2017-Dec-13 15:20N 37°32' E 025°51'413.1
2017-Dec-13 15:00N 37°28' E 025°53'612.4
2017-Dec-13 14:30N 37°24' E 025°59'612.8
2017-Dec-13 14:00N 37°20' E 026°05'612.6
2017-Dec-13 13:30N 37°17' E 026°12'612.5
2017-Dec-13 13:00N 37°13' E 026°18'612.9
2017-Dec-13 12:30N 37°09' E 026°25'612.9
2017-Dec-13 12:00N 37°06' E 026°31'712.0
2017-Dec-13 11:27N 37°00' E 026°36'812.9
2017-Dec-13 10:50N 36°53' E 026°40'512.8
2017-Dec-13 10:26N 36°48' E 026°41'612.8
2017-Dec-13 09:58N 36°42' E 026°44'913.4
2017-Dec-13 09:18N 36°34' E 026°48'513.4
2017-Dec-13 08:57N 36°29' E 026°50'17511.3
2017-Dec-12 17:24N 35°46' E 030°20'  

Dump ship's entire track history